sensor_id;sensor_type;location;lat;lon;timestamp;pressure;altitude;pressure_sealevel;temperature;humidity
8501;BME280;4288;48.484;10.024;2023-02-22T00:00:26;95535.25;;;0.31;nan
8501;BME280;4288;48.484;10.024;2023-02-22T00:03:05;95529.03;;;0.36;nan
8501;BME280;4288;48.484;10.024;2023-02-22T00:05:32;95532.59;;;0.40;nan
8501;BME280;4288;48.484;10.024;2023-02-22T00:08:01;95534.75;;;0.38;nan
8501;BME280;4288;48.484;10.024;2023-02-22T00:10:28;95522.06;;;0.48;nan
8501;BME280;4288;48.484;10.024;2023-02-22T00:12:55;95526.53;;;0.48;nan
8501;BME280;4288;48.484;10.024;2023-02-22T00:15:24;95527.31;;;0.40;nan
8501;BME280;4288;48.484;10.024;2023-02-22T00:17:53;95530.75;;;0.40;nan
8501;BME280;4288;48.484;10.024;2023-02-22T00:20:22;95523.63;;;0.41;nan
8501;BME280;4288;48.484;10.024;2023-02-22T00:22:50;95528.56;;;0.42;nan
8501;BME280;4288;48.484;10.024;2023-02-22T00:25:21;95524.53;;;0.45;nan
8501;BME280;4288;48.484;10.024;2023-02-22T00:27:50;95523.00;;;0.35;nan
8501;BME280;4288;48.484;10.024;2023-02-22T00:30:21;95520.25;;;0.32;nan
8501;BME280;4288;48.484;10.024;2023-02-22T00:32:49;95518.25;;;0.29;nan
8501;BME280;4288;48.484;10.024;2023-02-22T00:35:19;95524.75;;;0.31;nan
8501;BME280;4288;48.484;10.024;2023-02-22T00:37:47;95525.69;;;0.27;nan
8501;BME280;4288;48.484;10.024;2023-02-22T00:40:19;95526.75;;;0.26;nan
8501;BME280;4288;48.484;10.024;2023-02-22T00:42:47;95519.31;;;0.28;nan
8501;BME280;4288;48.484;10.024;2023-02-22T00:45:18;95517.78;;;0.27;nan
8501;BME280;4288;48.484;10.024;2023-02-22T00:47:45;95512.09;;;0.16;nan
8501;BME280;4288;48.484;10.024;2023-02-22T00:50:13;95518.59;;;0.19;nan
8501;BME280;4288;48.484;10.024;2023-02-22T00:52:40;95514.53;;;0.30;nan
8501;BME280;4288;48.484;10.024;2023-02-22T00:55:14;95514.22;;;0.31;nan
8501;BME280;4288;48.484;10.024;2023-02-22T00:57:42;95508.06;;;0.27;nan
8501;BME280;4288;48.484;10.024;2023-02-22T01:00:16;95511.31;;;0.24;nan
8501;BME280;4288;48.484;10.024;2023-02-22T01:02:45;95513.97;;;0.16;nan
8501;BME280;4288;48.484;10.024;2023-02-22T01:05:18;95503.78;;;0.06;nan
8501;BME280;4288;48.484;10.024;2023-02-22T01:07:46;95507.50;;;0.05;nan
8501;BME280;4288;48.484;10.024;2023-02-22T01:10:15;95505.00;;;0.08;nan
8501;BME280;4288;48.484;10.024;2023-02-22T01:12:44;95504.53;;;0.06;nan
8501;BME280;4288;48.484;10.024;2023-02-22T01:15:12;95503.00;;;0.05;nan
8501;BME280;4288;48.484;10.024;2023-02-22T01:17:40;95509.66;;;0.03;nan
8501;BME280;4288;48.484;10.024;2023-02-22T01:20:10;95508.25;;;0.05;nan
8501;BME280;4288;48.484;10.024;2023-02-22T01:22:39;95501.00;;;0.02;nan
8501;BME280;4288;48.484;10.024;2023-02-22T01:25:07;95503.34;;;0.04;nan
8501;BME280;4288;48.484;10.024;2023-02-22T01:27:37;95501.34;;;-0.08;nan
8501;BME280;4288;48.484;10.024;2023-02-22T01:30:07;95503.34;;;0.04;nan
8501;BME280;4288;48.484;10.024;2023-02-22T01:32:35;95500.72;;;-0.05;nan
8501;BME280;4288;48.484;10.024;2023-02-22T01:35:04;95494.22;;;-0.08;nan
8501;BME280;4288;48.484;10.024;2023-02-22T01:37:33;95498.69;;;0.00;nan
8501;BME280;4288;48.484;10.024;2023-02-22T01:40:00;95499.19;;;-0.06;nan
8501;BME280;4288;48.484;10.024;2023-02-22T01:42:29;95497.34;;;-0.14;nan
8501;BME280;4288;48.484;10.024;2023-02-22T01:45:56;95491.13;;;-0.10;nan
8501;BME280;4288;48.484;10.024;2023-02-22T01:48:30;95496.69;;;-0.03;nan
8501;BME280;4288;48.484;10.024;2023-02-22T01:51:03;95494.53;;;-0.09;nan
8501;BME280;4288;48.484;10.024;2023-02-22T01:53:42;95498.25;;;-0.10;nan
8501;BME280;4288;48.484;10.024;2023-02-22T01:56:11;95499.78;;;-0.09;nan
8501;BME280;4288;48.484;10.024;2023-02-22T01:58:43;95499.47;;;-0.08;nan
8501;BME280;4288;48.484;10.024;2023-02-22T02:01:14;95496.75;;;-0.20;nan
8501;BME280;4288;48.484;10.024;2023-02-22T02:03:42;95500.44;;;-0.12;nan
8501;BME280;4288;48.484;10.024;2023-02-22T02:06:13;95495.03;;;-0.24;nan
8501;BME280;4288;48.484;10.024;2023-02-22T02:08:51;95487.75;;;-0.19;nan
8501;BME280;4288;48.484;10.024;2023-02-22T02:11:23;95490.22;;;-0.05;nan
8501;BME280;4288;48.484;10.024;2023-02-22T02:13:52;95485.28;;;-0.15;nan
8501;BME280;4288;48.484;10.024;2023-02-22T02:16:23;95481.25;;;-0.13;nan
8501;BME280;4288;48.484;10.024;2023-02-22T02:18:53;95478.97;;;-0.23;nan
8501;BME280;4288;48.484;10.024;2023-02-22T02:22:12;95478.38;;;-0.28;nan
8501;BME280;4288;48.484;10.024;2023-02-22T02:28:25;95475.59;;;-0.32;nan
8501;BME280;4288;48.484;10.024;2023-02-22T02:31:38;95463.69;;;-0.29;nan
8501;BME280;4288;48.484;10.024;2023-02-22T02:34:17;95464.59;;;-0.25;nan
8501;BME280;4288;48.484;10.024;2023-02-22T02:36:57;95463.06;;;-0.18;nan
8501;BME280;4288;48.484;10.024;2023-02-22T02:39:28;95445.47;;;-0.43;nan
8501;BME280;4288;48.484;10.024;2023-02-22T02:42:05;95447.81;;;-0.50;nan
8501;BME280;4288;48.484;10.024;2023-02-22T02:44:39;95451.66;;;-0.39;nan
8501;BME280;4288;48.484;10.024;2023-02-22T02:47:13;95450.72;;;-0.34;nan
8501;BME280;4288;48.484;10.024;2023-02-22T02:49:48;95450.56;;;-0.29;nan
8501;BME280;4288;48.484;10.024;2023-02-22T02:52:18;95440.09;;;-0.38;nan
8501;BME280;4288;48.484;10.024;2023-02-22T02:54:48;95443.81;;;-0.47;nan
8501;BME280;4288;48.484;10.024;2023-02-22T02:57:16;95442.09;;;-0.52;nan
8501;BME280;4288;48.484;10.024;2023-02-22T02:59:43;95439.47;;;-0.43;nan
8501;BME280;4288;48.484;10.024;2023-02-22T03:02:30;95434.22;;;-0.52;nan
8501;BME280;4288;48.484;10.024;2023-02-22T03:05:20;95431.47;;;-0.55;nan
8501;BME280;4288;48.484;10.024;2023-02-22T03:07:59;95436.84;;;-0.60;nan
8501;BME280;4288;48.484;10.024;2023-02-22T03:10:44;95433.31;;;-0.56;nan
8501;BME280;4288;48.484;10.024;2023-02-22T03:13:23;95423.72;;;-0.43;nan
8501;BME280;4288;48.484;10.024;2023-02-22T03:16:02;95424.50;;;-0.51;nan
8501;BME280;4288;48.484;10.024;2023-02-22T03:18:48;95425.28;;;-0.51;nan
8501;BME280;4288;48.484;10.024;2023-02-22T03:21:24;95424.78;;;-0.36;nan
8501;BME280;4288;48.484;10.024;2023-02-22T03:24:03;95423.41;;;-0.50;nan
8501;BME280;4288;48.484;10.024;2023-02-22T03:26:37;95424.00;;;-0.36;nan
8501;BME280;4288;48.484;10.024;2023-02-22T03:29:07;95413.38;;;-0.40;nan
8501;BME280;4288;48.484;10.024;2023-02-22T03:31:39;95405.09;;;-0.59;nan
8501;BME280;4288;48.484;10.024;2023-02-22T03:34:12;95404.28;;;-0.51;nan
8501;BME280;4288;48.484;10.024;2023-02-22T03:36:48;95407.53;;;-0.45;nan
8501;BME280;4288;48.484;10.024;2023-02-22T03:39:17;95404.59;;;-0.44;nan
8501;BME280;4288;48.484;10.024;2023-02-22T03:41:48;95403.78;;;-0.36;nan
8501;BME280;4288;48.484;10.024;2023-02-22T03:44:23;95404.31;;;-0.68;nan
8501;BME280;4288;48.484;10.024;2023-02-22T03:46:54;95402.13;;;-0.57;nan
8501;BME280;4288;48.484;10.024;2023-02-22T03:49:30;95411.25;;;-0.55;nan
8501;BME280;4288;48.484;10.024;2023-02-22T03:52:01;95411.53;;;-0.56;nan
8501;BME280;4288;48.484;10.024;2023-02-22T03:54:29;95413.88;;;-0.55;nan
8501;BME280;4288;48.484;10.024;2023-02-22T03:57:02;95414.47;;;-0.49;nan
8501;BME280;4288;48.484;10.024;2023-02-22T03:59:30;95408.63;;;-0.55;nan
8501;BME280;4288;48.484;10.024;2023-02-22T04:01:57;95412.31;;;-0.56;nan
8501;BME280;4288;48.484;10.024;2023-02-22T04:04:24;95411.41;;;-0.51;nan
8501;BME280;4288;48.484;10.024;2023-02-22T04:06:52;95408.91;;;-0.56;nan
8501;BME280;4288;48.484;10.024;2023-02-22T04:09:20;95408.63;;;-0.55;nan
8501;BME280;4288;48.484;10.024;2023-02-22T04:11:48;95411.25;;;-0.63;nan
8501;BME280;4288;48.484;10.024;2023-02-22T04:14:15;95410.94;;;-0.62;nan
8501;BME280;4288;48.484;10.024;2023-02-22T04:16:42;95414.34;;;-0.61;nan
8501;BME280;4288;48.484;10.024;2023-02-22T04:19:09;95410.78;;;-0.65;nan
8501;BME280;4288;48.484;10.024;2023-02-22T04:21:37;95405.25;;;-0.72;nan
8501;BME280;4288;48.484;10.024;2023-02-22T04:24:05;95407.09;;;-0.73;nan
8501;BME280;4288;48.484;10.024;2023-02-22T04:26:34;95404.31;;;-0.94;nan
8501;BME280;4288;48.484;10.024;2023-02-22T04:29:01;95401.69;;;-0.85;nan
8501;BME280;4288;48.484;10.024;2023-02-22T04:31:29;95402.03;;;-0.86;nan
8501;BME280;4288;48.484;10.024;2023-02-22T04:33:56;95398.75;;;-0.75;nan
8501;BME280;4288;48.484;10.024;2023-02-22T04:36:23;95396.59;;;-1.07;nan
8501;BME280;4288;48.484;10.024;2023-02-22T04:38:50;95400.03;;;-0.98;nan
8501;BME280;4288;48.484;10.024;2023-02-22T04:41:17;95403.25;;;-0.93;nan
8501;BME280;4288;48.484;10.024;2023-02-22T04:43:46;95390.59;;;-0.99;nan
8501;BME280;4288;48.484;10.024;2023-02-22T04:46:13;95397.56;;;-1.12;nan
8501;BME280;4288;48.484;10.024;2023-02-22T04:48:40;95399.09;;;-1.02;nan
8501;BME280;4288;48.484;10.024;2023-02-22T04:51:08;95396.47;;;-1.02;nan
8501;BME280;4288;48.484;10.024;2023-02-22T04:53:35;95395.38;;;-1.01;nan
8501;BME280;4288;48.484;10.024;2023-02-22T04:56:02;95389.97;;;-0.88;nan
8501;BME280;4288;48.484;10.024;2023-02-22T04:58:29;95390.16;;;-0.84;nan
8501;BME280;4288;48.484;10.024;2023-02-22T05:00:58;95388.72;;;-0.81;nan
8501;BME280;4288;48.484;10.024;2023-02-22T05:03:26;95388.13;;;-0.87;nan
8501;BME280;4288;48.484;10.024;2023-02-22T05:05:53;95380.56;;;-0.88;nan
8501;BME280;4288;48.484;10.024;2023-02-22T05:08:20;95385.22;;;-0.94;nan
8501;BME280;4288;48.484;10.024;2023-02-22T05:10:47;95382.25;;;-1.01;nan
8501;BME280;4288;48.484;10.024;2023-02-22T05:13:14;95382.88;;;-0.96;nan
8501;BME280;4288;48.484;10.024;2023-02-22T05:15:41;95383.19;;;-0.97;nan
8501;BME280;4288;48.484;10.024;2023-02-22T05:18:10;95383.97;;;-1.05;nan
8501;BME280;4288;48.484;10.024;2023-02-22T05:20:37;95384.59;;;-1.08;nan
8501;BME280;4288;48.484;10.024;2023-02-22T05:23:04;95387.22;;;-1.08;nan
8501;BME280;4288;48.484;10.024;2023-02-22T05:25:32;95376.41;;;-1.07;nan
8501;BME280;4288;48.484;10.024;2023-02-22T05:28:01;95388.13;;;-1.04;nan
8501;BME280;4288;48.484;10.024;2023-02-22T05:30:33;95380.44;;;-0.92;nan
8501;BME280;4288;48.484;10.024;2023-02-22T05:33:00;95373.16;;;-0.95;nan
8501;BME280;4288;48.484;10.024;2023-02-22T05:35:29;95378.25;;;-1.07;nan
8501;BME280;4288;48.484;10.024;2023-02-22T05:37:56;95375.50;;;-1.28;nan
8501;BME280;4288;48.484;10.024;2023-02-22T05:40:28;95369.94;;;-1.18;nan
8501;BME280;4288;48.484;10.024;2023-02-22T05:42:56;95373.94;;;-1.20;nan
8501;BME280;4288;48.484;10.024;2023-02-22T05:45:26;95376.13;;;-1.14;nan
8501;BME280;4288;48.484;10.024;2023-02-22T05:47:53;95368.84;;;-1.17;nan
8501;BME280;4288;48.484;10.024;2023-02-22T05:50:21;95365.63;;;-1.14;nan
8501;BME280;4288;48.484;10.024;2023-02-22T05:52:51;95368.56;;;-1.15;nan
8501;BME280;4288;48.484;10.024;2023-02-22T05:55:20;95373.63;;;-1.19;nan
8501;BME280;4288;48.484;10.024;2023-02-22T05:57:48;95361.16;;;-1.13;nan
8501;BME280;4288;48.484;10.024;2023-02-22T06:00:19;95367.31;;;-1.09;nan
8501;BME280;4288;48.484;10.024;2023-02-22T06:02:53;95360.22;;;-1.26;nan
8501;BME280;4288;48.484;10.024;2023-02-22T06:05:21;95367.47;;;-1.31;nan
8501;BME280;4288;48.484;10.024;2023-02-22T06:07:49;95358.66;;;-1.44;nan
8501;BME280;4288;48.484;10.024;2023-02-22T06:10:17;95360.84;;;-1.37;nan
8501;BME280;4288;48.484;10.024;2023-02-22T06:12:44;95359.63;;;-1.31;nan
8501;BME280;4288;48.484;10.024;2023-02-22T06:15:13;95362.84;;;-1.26;nan
8501;BME280;4288;48.484;10.024;2023-02-22T06:17:40;95371.63;;;-1.39;nan
8501;BME280;4288;48.484;10.024;2023-02-22T06:20:09;95370.06;;;-1.40;nan
8501;BME280;4288;48.484;10.024;2023-02-22T06:22:36;95373.94;;;-1.37;nan
8501;BME280;4288;48.484;10.024;2023-02-22T06:25:08;95373.47;;;-1.56;nan
8501;BME280;4288;48.484;10.024;2023-02-22T06:27:35;95383.47;;;-1.50;nan
8501;BME280;4288;48.484;10.024;2023-02-22T06:30:04;95375.94;;;-1.34;nan
8501;BME280;4288;48.484;10.024;2023-02-22T06:32:31;95379.50;;;-1.22;nan
8501;BME280;4288;48.484;10.024;2023-02-22T06:34:58;95390.28;;;-1.15;nan
8501;BME280;4288;48.484;10.024;2023-02-22T06:37:25;95390.00;;;-1.22;nan
8501;BME280;4288;48.484;10.024;2023-02-22T06:39:52;95388.28;;;-1.09;nan
8501;BME280;4288;48.484;10.024;2023-02-22T06:42:21;95384.28;;;-0.98;nan
8501;BME280;4288;48.484;10.024;2023-02-22T06:44:48;95393.69;;;-1.14;nan
8501;BME280;4288;48.484;10.024;2023-02-22T06:47:16;95392.75;;;-1.01;nan
8501;BME280;4288;48.484;10.024;2023-02-22T06:49:43;95393.06;;;-0.94;nan
8501;BME280;4288;48.484;10.024;2023-02-22T06:52:10;95395.22;;;-0.88;nan
8501;BME280;4288;48.484;10.024;2023-02-22T06:54:38;95393.53;;;-0.75;nan
8501;BME280;4288;48.484;10.024;2023-02-22T06:57:05;95390.13;;;-0.67;nan
8501;BME280;4288;48.484;10.024;2023-02-22T06:59:36;95394.09;;;-0.44;nan
8501;BME280;4288;48.484;10.024;2023-02-22T07:02:03;95390.81;;;-0.41;nan
8501;BME280;4288;48.484;10.024;2023-02-22T07:04:30;95392.97;;;-0.26;nan
8501;BME280;4288;48.484;10.024;2023-02-22T07:06:57;95389.78;;;-0.02;nan
8501;BME280;4288;48.484;10.024;2023-02-22T07:09:25;95400.75;;;0.00;nan
8501;BME280;4288;48.484;10.024;2023-02-22T07:11:52;95398.53;;;0.11;nan
8501;BME280;4288;48.484;10.024;2023-02-22T07:14:20;95397.28;;;0.08;nan
8501;BME280;4288;48.484;10.024;2023-02-22T07:16:49;95389.75;;;0.07;nan
8501;BME280;4288;48.484;10.024;2023-02-22T07:19:16;95398.31;;;0.24;nan
8501;BME280;4288;48.484;10.024;2023-02-22T07:21:43;95391.22;;;0.45;nan
8501;BME280;4288;48.484;10.024;2023-02-22T07:24:12;95396.09;;;0.64;nan
8501;BME280;4288;48.484;10.024;2023-02-22T07:26:41;95398.41;;;0.86;nan
8501;BME280;4288;48.484;10.024;2023-02-22T07:29:08;95400.31;;;0.98;nan
8501;BME280;4288;48.484;10.024;2023-02-22T07:31:37;95402.25;;;1.09;nan
8501;BME280;4288;48.484;10.024;2023-02-22T07:34:05;95394.00;;;1.31;nan
8501;BME280;4288;48.484;10.024;2023-02-22T07:36:32;95392.66;;;1.46;nan
8501;BME280;4288;48.484;10.024;2023-02-22T07:38:59;95398.72;;;1.58;nan
8501;BME280;4288;48.484;10.024;2023-02-22T07:41:26;95407.69;;;1.90;nan
8501;BME280;4288;48.484;10.024;2023-02-22T07:43:53;95395.19;;;2.11;nan
8501;BME280;4288;48.484;10.024;2023-02-22T07:46:20;95396.28;;;2.34;nan
8501;BME280;4288;48.484;10.024;2023-02-22T07:48:47;95394.53;;;2.50;nan
8501;BME280;4288;48.484;10.024;2023-02-22T07:51:17;95391.69;;;2.55;nan
8501;BME280;4288;48.484;10.024;2023-02-22T07:53:46;95391.19;;;2.90;nan
8501;BME280;4288;48.484;10.024;2023-02-22T07:56:14;95389.91;;;3.11;nan
8501;BME280;4288;48.484;10.024;2023-02-22T07:58:43;95390.47;;;3.44;nan
8501;BME280;4288;48.484;10.024;2023-02-22T08:01:10;95389.94;;;3.67;nan
8501;BME280;4288;48.484;10.024;2023-02-22T08:03:37;95392.06;;;3.92;nan
8501;BME280;4288;48.484;10.024;2023-02-22T08:06:06;95385.00;;;4.12;nan
8501;BME280;4288;48.484;10.024;2023-02-22T08:08:35;95381.34;;;4.16;nan
8501;BME280;4288;48.484;10.024;2023-02-22T08:11:02;95381.69;;;3.99;nan
8501;BME280;4288;48.484;10.024;2023-02-22T08:13:29;95380.91;;;3.99;nan
8501;BME280;4288;48.484;10.024;2023-02-22T08:15:57;95386.53;;;3.97;nan
8501;BME280;4288;48.484;10.024;2023-02-22T08:18:25;95377.59;;;4.02;nan
8501;BME280;4288;48.484;10.024;2023-02-22T08:23:27;95384.75;;;4.32;nan
8501;BME280;4288;48.484;10.024;2023-02-22T08:28:31;95369.88;;;4.59;nan
8501;BME280;4288;48.484;10.024;2023-02-22T08:30:59;95374.88;;;4.80;nan
8501;BME280;4288;48.484;10.024;2023-02-22T08:53:18;95369.81;;;7.79;nan
8501;BME280;4288;48.484;10.024;2023-02-22T08:55:45;95374.31;;;7.39;nan
8501;BME280;4288;48.484;10.024;2023-02-22T08:58:13;95373.53;;;7.71;nan
8501;BME280;4288;48.484;10.024;2023-02-22T09:00:41;95370.53;;;8.13;nan
8501;BME280;4288;48.484;10.024;2023-02-22T09:03:11;95368.56;;;8.06;nan
8501;BME280;4288;48.484;10.024;2023-02-22T09:05:39;95372.03;;;9.19;nan
8501;BME280;4288;48.484;10.024;2023-02-22T09:08:06;95366.06;;;8.71;nan
8501;BME280;4288;48.484;10.024;2023-02-22T09:10:35;95363.94;;;8.40;nan
8501;BME280;4288;48.484;10.024;2023-02-22T09:13:03;95360.88;;;8.38;nan
8501;BME280;4288;48.484;10.024;2023-02-22T09:15:32;95367.50;;;8.18;nan
8501;BME280;4288;48.484;10.024;2023-02-22T09:18:00;95362.03;;;8.00;nan
8501;BME280;4288;48.484;10.024;2023-02-22T09:20:28;95364.28;;;7.98;nan
8501;BME280;4288;48.484;10.024;2023-02-22T09:22:55;95365.75;;;7.56;nan
8501;BME280;4288;48.484;10.024;2023-02-22T09:25:23;95366.38;;;7.79;nan
8501;BME280;4288;48.484;10.024;2023-02-22T09:27:52;95360.81;;;7.91;nan
8501;BME280;4288;48.484;10.024;2023-02-22T09:30:23;95362.31;;;8.79;nan
8501;BME280;4288;48.484;10.024;2023-02-22T09:32:53;95360.06;;;8.31;nan
8501;BME280;4288;48.484;10.024;2023-02-22T09:35:21;95355.25;;;8.50;nan
8501;BME280;4288;48.484;10.024;2023-02-22T09:37:56;95351.28;;;8.84;nan
8501;BME280;4288;48.484;10.024;2023-02-22T09:40:25;95358.25;;;10.59;nan
8501;BME280;4288;48.484;10.024;2023-02-22T09:43:19;95347.13;;;9.98;nan
8501;BME280;4288;48.484;10.024;2023-02-22T09:46:04;95346.34;;;9.79;nan
8501;BME280;4288;48.484;10.024;2023-02-22T09:48:53;95351.78;;;10.60;nan
8501;BME280;4288;48.484;10.024;2023-02-22T09:51:25;95345.69;;;11.78;nan
8501;BME280;4288;48.484;10.024;2023-02-22T09:53:58;95334.75;;;12.13;nan
8501;BME280;4288;48.484;10.024;2023-02-22T09:56:28;95341.00;;;11.03;nan
8501;BME280;4288;48.484;10.024;2023-02-22T09:59:01;95338.69;;;11.98;nan
8501;BME280;4288;48.484;10.024;2023-02-22T10:01:32;95345.91;;;11.25;nan
8501;BME280;4288;48.484;10.024;2023-02-22T10:04:10;95348.66;;;10.97;nan
8501;BME280;4288;48.484;10.024;2023-02-22T10:06:59;95346.38;;;10.85;nan
8501;BME280;4288;48.484;10.024;2023-02-22T10:09:33;95340.47;;;11.50;nan
8501;BME280;4288;48.484;10.024;2023-02-22T10:12:09;95337.88;;;11.29;nan
8501;BME280;4288;48.484;10.024;2023-02-22T10:14:50;95339.50;;;10.91;nan
8501;BME280;4288;48.484;10.024;2023-02-22T10:17:31;95336.34;;;11.28;nan
8501;BME280;4288;48.484;10.024;2023-02-22T10:20:21;95336.13;;;10.66;nan
8501;BME280;4288;48.484;10.024;2023-02-22T10:23:03;95331.03;;;11.17;nan
8501;BME280;4288;48.484;10.024;2023-02-22T10:25:37;95334.66;;;11.69;nan
8501;BME280;4288;48.484;10.024;2023-02-22T10:28:12;95333.44;;;12.35;nan
8501;BME280;4288;48.484;10.024;2023-02-22T10:30:48;95325.94;;;13.05;nan
8501;BME280;4288;48.484;10.024;2023-02-22T10:33:21;95323.31;;;13.35;nan
8501;BME280;4288;48.484;10.024;2023-02-22T10:35:52;95315.53;;;14.01;nan
8501;BME280;4288;48.484;10.024;2023-02-22T10:38:22;95313.94;;;12.79;nan
8501;BME280;4288;48.484;10.024;2023-02-22T10:40:54;95314.66;;;12.80;nan
8501;BME280;4288;48.484;10.024;2023-02-22T10:43:22;95311.06;;;12.97;nan
8501;BME280;4288;48.484;10.024;2023-02-22T10:45:55;95309.34;;;12.76;nan
8501;BME280;4288;48.484;10.024;2023-02-22T10:48:27;95311.44;;;12.95;nan
8501;BME280;4288;48.484;10.024;2023-02-22T10:51:00;95316.06;;;12.95;nan
8501;BME280;4288;48.484;10.024;2023-02-22T10:53:28;95311.00;;;12.63;nan
8501;BME280;4288;48.484;10.024;2023-02-22T10:56:08;95313.84;;;12.86;nan
8501;BME280;4288;48.484;10.024;2023-02-22T10:58:46;95305.34;;;12.91;nan
8501;BME280;4288;48.484;10.024;2023-02-22T11:01:23;95306.53;;;12.49;nan
8501;BME280;4288;48.484;10.024;2023-02-22T11:04:09;95305.88;;;12.79;nan
8501;BME280;4288;48.484;10.024;2023-02-22T11:06:38;95305.38;;;12.54;nan
8501;BME280;4288;48.484;10.024;2023-02-22T11:09:10;95299.56;;;12.15;nan
8501;BME280;4288;48.484;10.024;2023-02-22T11:11:40;95301.50;;;12.11;nan
8501;BME280;4288;48.484;10.024;2023-02-22T11:14:09;95299.59;;;12.56;nan
8501;BME280;4288;48.484;10.024;2023-02-22T11:16:40;95290.88;;;11.97;nan
8501;BME280;4288;48.484;10.024;2023-02-22T11:19:18;95298.56;;;11.91;nan
8501;BME280;4288;48.484;10.024;2023-02-22T11:21:49;95282.28;;;12.19;nan
8501;BME280;4288;48.484;10.024;2023-02-22T11:24:19;95281.72;;;12.42;nan
8501;BME280;4288;48.484;10.024;2023-02-22T11:26:52;95279.84;;;12.35;nan
8501;BME280;4288;48.484;10.024;2023-02-22T11:29:25;95278.28;;;12.79;nan
8501;BME280;4288;48.484;10.024;2023-02-22T11:31:54;95274.13;;;12.33;nan
8501;BME280;4288;48.484;10.024;2023-02-22T11:34:35;95268.47;;;12.24;nan
8501;BME280;4288;48.484;10.024;2023-02-22T11:37:26;95262.78;;;12.15;nan
8501;BME280;4288;48.484;10.024;2023-02-22T11:40:15;95271.41;;;11.93;nan
8501;BME280;4288;48.484;10.024;2023-02-22T11:42:44;95268.66;;;12.85;nan
8501;BME280;4288;48.484;10.024;2023-02-22T11:45:14;95264.72;;;12.11;nan
8501;BME280;4288;48.484;10.024;2023-02-22T11:47:52;95256.53;;;12.32;nan
8501;BME280;4288;48.484;10.024;2023-02-22T11:50:29;95250.97;;;12.09;nan
8501;BME280;4288;48.484;10.024;2023-02-22T11:53:21;95250.47;;;12.99;nan
8501;BME280;4288;48.484;10.024;2023-02-22T11:56:00;95242.59;;;13.49;nan
8501;BME280;4288;48.484;10.024;2023-02-22T12:04:30;95248.25;;;16.97;nan
8501;BME280;4288;48.484;10.024;2023-02-22T12:07:16;95248.97;;;17.93;nan
8501;BME280;4288;48.484;10.024;2023-02-22T12:09:55;95239.94;;;17.20;nan
8501;BME280;4288;48.484;10.024;2023-02-22T12:12:34;95235.75;;;18.20;nan
8501;BME280;4288;48.484;10.024;2023-02-22T12:15:11;95229.75;;;17.24;nan
8501;BME280;4288;48.484;10.024;2023-02-22T12:17:53;95229.50;;;17.47;nan
8501;BME280;4288;48.484;10.024;2023-02-22T12:20:27;95231.25;;;17.92;nan
8501;BME280;4288;48.484;10.024;2023-02-22T12:23:06;95213.16;;;18.26;nan
8501;BME280;4288;48.484;10.024;2023-02-22T12:25:45;95218.50;;;17.67;nan
8501;BME280;4288;48.484;10.024;2023-02-22T12:28:20;95222.63;;;15.48;nan
8501;BME280;4288;48.484;10.024;2023-02-22T12:30:59;95213.31;;;16.00;nan
8501;BME280;4288;48.484;10.024;2023-02-22T12:33:37;95209.56;;;17.16;nan
8501;BME280;4288;48.484;10.024;2023-02-22T12:36:10;95203.41;;;16.58;nan
8501;BME280;4288;48.484;10.024;2023-02-22T12:38:42;95208.28;;;16.92;nan
8501;BME280;4288;48.484;10.024;2023-02-22T12:41:19;95200.84;;;16.96;nan
8501;BME280;4288;48.484;10.024;2023-02-22T12:43:52;95194.25;;;18.14;nan
8501;BME280;4288;48.484;10.024;2023-02-22T12:46:26;95197.59;;;18.05;nan
8501;BME280;4288;48.484;10.024;2023-02-22T12:49:03;95195.06;;;18.48;nan
8501;BME280;4288;48.484;10.024;2023-02-22T12:51:38;95196.50;;;18.15;nan
8501;BME280;4288;48.484;10.024;2023-02-22T12:54:15;95194.09;;;18.42;nan
8501;BME280;4288;48.484;10.024;2023-02-22T12:56:49;95195.19;;;18.45;nan
8501;BME280;4288;48.484;10.024;2023-02-22T12:59:24;95187.50;;;18.31;nan
8501;BME280;4288;48.484;10.024;2023-02-22T13:01:57;95197.69;;;18.61;nan
8501;BME280;4288;48.484;10.024;2023-02-22T13:04:26;95189.97;;;19.15;nan
8501;BME280;4288;48.484;10.024;2023-02-22T13:07:12;95175.22;;;17.29;nan
8501;BME280;4288;48.484;10.024;2023-02-22T13:12:55;95183.25;;;16.18;nan
8501;BME280;4288;48.484;10.024;2023-02-22T13:15:35;95179.78;;;15.53;nan
8501;BME280;4288;48.484;10.024;2023-02-22T13:18:12;95173.94;;;14.64;nan
8501;BME280;4288;48.484;10.024;2023-02-22T13:20:44;95177.03;;;14.62;nan
8501;BME280;4288;48.484;10.024;2023-02-22T13:23:32;95170.34;;;15.45;nan
8501;BME280;4288;48.484;10.024;2023-02-22T13:26:10;95171.63;;;15.73;nan
8501;BME280;4288;48.484;10.024;2023-02-22T13:28:45;95170.28;;;14.93;nan
8501;BME280;4288;48.484;10.024;2023-02-22T13:31:36;95163.09;;;14.24;nan
8501;BME280;4288;48.484;10.024;2023-02-22T13:34:29;95172.66;;;13.83;nan
8501;BME280;4288;48.484;10.024;2023-02-22T13:37:18;95173.50;;;13.53;nan
8501;BME280;4288;48.484;10.024;2023-02-22T13:40:22;95161.00;;;13.43;nan
8501;BME280;4288;48.484;10.024;2023-02-22T13:43:13;95165.13;;;12.91;nan
8501;BME280;4288;48.484;10.024;2023-02-22T13:49:14;95157.22;;;12.46;nan
8501;BME280;4288;48.484;10.024;2023-02-22T13:51:47;95161.34;;;12.54;nan
8501;BME280;4288;48.484;10.024;2023-02-22T13:54:22;95160.25;;;12.48;nan
8501;BME280;4288;48.484;10.024;2023-02-22T13:56:54;95161.06;;;12.45;nan
8501;BME280;4288;48.484;10.024;2023-02-22T13:59:28;95162.34;;;12.34;nan
8501;BME280;4288;48.484;10.024;2023-02-22T14:01:58;95160.06;;;12.32;nan
8501;BME280;4288;48.484;10.024;2023-02-22T14:04:39;95161.34;;;12.17;nan
8501;BME280;4288;48.484;10.024;2023-02-22T14:07:54;95160.63;;;12.13;nan
8501;BME280;4288;48.484;10.024;2023-02-22T14:10:49;95157.31;;;12.39;nan
8501;BME280;4288;48.484;10.024;2023-02-22T14:13:19;95160.78;;;12.70;nan
8501;BME280;4288;48.484;10.024;2023-02-22T14:16:20;95160.41;;;13.32;nan
8501;BME280;4288;48.484;10.024;2023-02-22T14:18:49;95157.19;;;13.14;nan
8501;BME280;4288;48.484;10.024;2023-02-22T14:21:26;95166.94;;;13.81;nan
8501;BME280;4288;48.484;10.024;2023-02-22T14:23:54;95162.66;;;13.83;nan
8501;BME280;4288;48.484;10.024;2023-02-22T14:26:26;95165.59;;;14.58;nan
8501;BME280;4288;48.484;10.024;2023-02-22T14:28:58;95169.72;;;15.38;nan
8501;BME280;4288;48.484;10.024;2023-02-22T14:31:28;95160.59;;;15.83;nan
8501;BME280;4288;48.484;10.024;2023-02-22T14:34:03;95163.28;;;15.99;nan
8501;BME280;4288;48.484;10.024;2023-02-22T14:36:46;95162.03;;;15.88;nan
8501;BME280;4288;48.484;10.024;2023-02-22T14:39:22;95162.53;;;15.31;nan
8501;BME280;4288;48.484;10.024;2023-02-22T14:41:57;95161.72;;;14.59;nan
8501;BME280;4288;48.484;10.024;2023-02-22T14:44:32;95162.22;;;14.54;nan
8501;BME280;4288;48.484;10.024;2023-02-22T14:47:05;95157.69;;;14.28;nan